Wildersville, Tennessee
Current Conditions -  °F | °C
As of 9:53 AM on Thursday 30 Oct 2014 (Local Time) from KMKL Reporting Station
Clear Clear  
Wind Chill: 53°   Ceiling: Unl
Heat Index: 53°   Visibility: 10mi
Dew Point: 43°   Wind: 0mph
Humidity: 69%   Direction: NA
Pressure: 30.18"   Gusts: NA
Location:  35.78°N, 88.36°W
Report Text: KMKL 301453Z 00000KT 10SM CLR 12/06 A3018 RMK AO2 SLP219 T01170061 50003
Loading
Personal Weather Stations






























Interactive Weather Map
Tropical Storm Tracking
New forecast layout! Learn more

10-Day Weather Forecast

Advertisements
Track Severe Weather on mobile